sensor_id;sensor_type;location;lat;lon;timestamp;P1;durP1;ratioP1;P2;durP2;ratioP2
3943;SDS011;1986;52.546;13.428;2023-09-18T00:01:16;26.23;;;24.43;;
3943;SDS011;1986;52.546;13.428;2023-09-18T00:03:47;28.90;;;26.90;;
3943;SDS011;1986;52.546;13.428;2023-09-18T00:06:14;26.00;;;24.20;;
3943;SDS011;1986;52.546;13.428;2023-09-18T00:08:41;25.80;;;24.10;;
3943;SDS011;1986;52.546;13.428;2023-09-18T00:11:08;26.73;;;24.83;;
3943;SDS011;1986;52.546;13.428;2023-09-18T00:13:36;26.07;;;24.27;;
3943;SDS011;1986;52.546;13.428;2023-09-18T00:16:03;27.50;;;25.47;;
3943;SDS011;1986;52.546;13.428;2023-09-18T00:18:30;26.90;;;25.00;;
3943;SDS011;1986;52.546;13.428;2023-09-18T00:21:00;25.30;;;23.60;;
3943;SDS011;1986;52.546;13.428;2023-09-18T00:23:28;25.60;;;23.90;;
3943;SDS011;1986;52.546;13.428;2023-09-18T00:25:55;26.50;;;24.67;;
3943;SDS011;1986;52.546;13.428;2023-09-18T00:28:22;25.33;;;23.63;;
3943;SDS011;1986;52.546;13.428;2023-09-18T00:30:51;25.07;;;23.37;;
3943;SDS011;1986;52.546;13.428;2023-09-18T00:33:19;25.77;;;23.93;;
3943;SDS011;1986;52.546;13.428;2023-09-18T00:35:46;25.60;;;23.70;;
3943;SDS011;1986;52.546;13.428;2023-09-18T00:38:14;25.50;;;23.70;;
3943;SDS011;1986;52.546;13.428;2023-09-18T00:40:41;25.40;;;23.67;;
3943;SDS011;1986;52.546;13.428;2023-09-18T00:43:09;26.17;;;24.47;;
3943;SDS011;1986;52.546;13.428;2023-09-18T00:45:38;25.93;;;24.13;;
3943;SDS011;1986;52.546;13.428;2023-09-18T00:48:08;26.63;;;24.83;;
3943;SDS011;1986;52.546;13.428;2023-09-18T00:50:35;26.17;;;24.37;;
3943;SDS011;1986;52.546;13.428;2023-09-18T00:53:04;26.57;;;24.77;;
3943;SDS011;1986;52.546;13.428;2023-09-18T00:55:40;25.40;;;23.70;;
3943;SDS011;1986;52.546;13.428;2023-09-18T00:58:08;26.23;;;24.40;;
3943;SDS011;1986;52.546;13.428;2023-09-18T01:00:36;25.87;;;24.07;;
3943;SDS011;1986;52.546;13.428;2023-09-18T01:03:03;25.93;;;24.13;;
3943;SDS011;1986;52.546;13.428;2023-09-18T01:05:31;25.87;;;24.17;;
3943;SDS011;1986;52.546;13.428;2023-09-18T01:08:01;26.30;;;24.50;;
3943;SDS011;1986;52.546;13.428;2023-09-18T01:10:32;25.90;;;24.20;;
3943;SDS011;1986;52.546;13.428;2023-09-18T01:13:03;27.23;;;25.33;;
3943;SDS011;1986;52.546;13.428;2023-09-18T01:15:40;25.50;;;23.90;;
3943;SDS011;1986;52.546;13.428;2023-09-18T01:18:14;26.30;;;24.50;;
3943;SDS011;1986;52.546;13.428;2023-09-18T01:20:43;28.73;;;26.27;;
3943;SDS011;1986;52.546;13.428;2023-09-18T01:23:11;24.20;;;22.60;;
3943;SDS011;1986;52.546;13.428;2023-09-18T01:25:38;24.27;;;22.67;;
3943;SDS011;1986;52.546;13.428;2023-09-18T01:28:05;24.00;;;22.40;;
3943;SDS011;1986;52.546;13.428;2023-09-18T01:30:32;24.63;;;23.03;;
3943;SDS011;1986;52.546;13.428;2023-09-18T01:32:59;25.07;;;23.43;;
3943;SDS011;1986;52.546;13.428;2023-09-18T01:35:28;25.00;;;23.40;;
3943;SDS011;1986;52.546;13.428;2023-09-18T01:37:57;25.10;;;23.40;;
3943;SDS011;1986;52.546;13.428;2023-09-18T01:40:27;25.50;;;23.80;;
3943;SDS011;1986;52.546;13.428;2023-09-18T01:42:55;25.67;;;23.87;;
3943;SDS011;1986;52.546;13.428;2023-09-18T01:45:25;25.30;;;23.60;;
3943;SDS011;1986;52.546;13.428;2023-09-18T01:47:52;26.00;;;24.20;;
3943;SDS011;1986;52.546;13.428;2023-09-18T01:50:19;25.30;;;23.60;;
3943;SDS011;1986;52.546;13.428;2023-09-18T01:52:49;25.57;;;23.87;;
3943;SDS011;1986;52.546;13.428;2023-09-18T01:55:16;25.43;;;23.73;;
3943;SDS011;1986;52.546;13.428;2023-09-18T01:57:44;25.83;;;24.13;;
3943;SDS011;1986;52.546;13.428;2023-09-18T02:00:15;25.93;;;24.23;;
3943;SDS011;1986;52.546;13.428;2023-09-18T02:02:43;25.53;;;23.83;;
3943;SDS011;1986;52.546;13.428;2023-09-18T02:05:10;25.53;;;23.83;;
3943;SDS011;1986;52.546;13.428;2023-09-18T02:07:39;25.20;;;23.50;;
3943;SDS011;1986;52.546;13.428;2023-09-18T02:10:06;25.10;;;23.40;;
3943;SDS011;1986;52.546;13.428;2023-09-18T02:12:34;25.33;;;23.43;;
3943;SDS011;1986;52.546;13.428;2023-09-18T02:15:02;23.90;;;22.30;;
3943;SDS011;1986;52.546;13.428;2023-09-18T02:17:38;29.83;;;24.80;;
3943;SDS011;1986;52.546;13.428;2023-09-18T02:20:05;24.10;;;22.50;;
3943;SDS011;1986;52.546;13.428;2023-09-18T02:22:36;23.90;;;22.30;;
3943;SDS011;1986;52.546;13.428;2023-09-18T02:25:05;24.50;;;22.90;;
3943;SDS011;1986;52.546;13.428;2023-09-18T02:27:33;24.80;;;23.20;;
3943;SDS011;1986;52.546;13.428;2023-09-18T02:30:00;25.30;;;23.60;;
3943;SDS011;1986;52.546;13.428;2023-09-18T02:32:31;24.10;;;22.50;;
3943;SDS011;1986;52.546;13.428;2023-09-18T02:34:59;24.20;;;22.60;;
3943;SDS011;1986;52.546;13.428;2023-09-18T02:37:29;24.57;;;22.90;;
3943;SDS011;1986;52.546;13.428;2023-09-18T02:39:56;24.47;;;22.87;;
3943;SDS011;1986;52.546;13.428;2023-09-18T02:42:23;25.70;;;24.00;;
3943;SDS011;1986;52.546;13.428;2023-09-18T02:44:50;25.27;;;23.57;;
3943;SDS011;1986;52.546;13.428;2023-09-18T02:47:21;26.77;;;24.30;;
3943;SDS011;1986;52.546;13.428;2023-09-18T02:49:48;24.70;;;23.00;;
3943;SDS011;1986;52.546;13.428;2023-09-18T02:52:15;24.00;;;22.40;;
3943;SDS011;1986;52.546;13.428;2023-09-18T02:54:42;24.20;;;22.60;;
3943;SDS011;1986;52.546;13.428;2023-09-18T02:57:09;26.07;;;24.33;;
3943;SDS011;1986;52.546;13.428;2023-09-18T02:59:36;24.30;;;22.70;;
3943;SDS011;1986;52.546;13.428;2023-09-18T03:02:03;25.10;;;23.30;;
3943;SDS011;1986;52.546;13.428;2023-09-18T03:04:33;26.57;;;24.77;;
3943;SDS011;1986;52.546;13.428;2023-09-18T03:07:03;24.17;;;22.23;;
3943;SDS011;1986;52.546;13.428;2023-09-18T03:09:30;24.40;;;22.70;;
3943;SDS011;1986;52.546;13.428;2023-09-18T03:11:57;23.80;;;22.10;;
3943;SDS011;1986;52.546;13.428;2023-09-18T03:14:27;24.93;;;23.23;;
3943;SDS011;1986;52.546;13.428;2023-09-18T03:16:54;25.33;;;23.63;;
3943;SDS011;1986;52.546;13.428;2023-09-18T03:19:22;24.53;;;22.83;;
3943;SDS011;1986;52.546;13.428;2023-09-18T03:21:51;24.93;;;23.30;;
3943;SDS011;1986;52.546;13.428;2023-09-18T03:24:19;24.10;;;22.50;;
3943;SDS011;1986;52.546;13.428;2023-09-18T03:26:49;25.20;;;23.50;;
3943;SDS011;1986;52.546;13.428;2023-09-18T03:29:16;24.10;;;22.50;;
3943;SDS011;1986;52.546;13.428;2023-09-18T03:31:43;23.83;;;22.30;;
3943;SDS011;1986;52.546;13.428;2023-09-18T03:34:10;24.30;;;22.70;;
3943;SDS011;1986;52.546;13.428;2023-09-18T03:36:39;23.63;;;22.13;;
3943;SDS011;1986;52.546;13.428;2023-09-18T03:39:10;23.70;;;22.20;;
3943;SDS011;1986;52.546;13.428;2023-09-18T03:41:40;24.40;;;22.80;;
3943;SDS011;1986;52.546;13.428;2023-09-18T03:44:07;23.77;;;22.27;;
3943;SDS011;1986;52.546;13.428;2023-09-18T03:46:35;24.50;;;22.90;;
3943;SDS011;1986;52.546;13.428;2023-09-18T03:49:02;24.10;;;22.50;;
3943;SDS011;1986;52.546;13.428;2023-09-18T03:51:29;23.60;;;22.00;;
3943;SDS011;1986;52.546;13.428;2023-09-18T03:53:56;23.83;;;22.23;;
3943;SDS011;1986;52.546;13.428;2023-09-18T03:56:24;23.83;;;22.23;;
3943;SDS011;1986;52.546;13.428;2023-09-18T03:58:51;23.80;;;22.20;;
3943;SDS011;1986;52.546;13.428;2023-09-18T04:01:18;24.13;;;22.53;;
3943;SDS011;1986;52.546;13.428;2023-09-18T04:03:45;23.67;;;22.17;;
3943;SDS011;1986;52.546;13.428;2023-09-18T04:06:12;24.97;;;23.27;;
3943;SDS011;1986;52.546;13.428;2023-09-18T04:08:39;24.07;;;22.47;;
3943;SDS011;1986;52.546;13.428;2023-09-18T04:11:06;24.07;;;22.47;;
3943;SDS011;1986;52.546;13.428;2023-09-18T04:13:38;23.90;;;22.30;;
3943;SDS011;1986;52.546;13.428;2023-09-18T04:16:06;25.90;;;24.10;;
3943;SDS011;1986;52.546;13.428;2023-09-18T04:18:39;23.90;;;22.30;;
3943;SDS011;1986;52.546;13.428;2023-09-18T04:21:06;23.80;;;22.20;;
3943;SDS011;1986;52.546;13.428;2023-09-18T04:23:33;25.83;;;24.10;;
3943;SDS011;1986;52.546;13.428;2023-09-18T04:26:01;23.30;;;21.80;;
3943;SDS011;1986;52.546;13.428;2023-09-18T04:28:28;25.63;;;23.53;;
3943;SDS011;1986;52.546;13.428;2023-09-18T04:30:57;24.57;;;22.93;;
3943;SDS011;1986;52.546;13.428;2023-09-18T04:33:24;23.70;;;22.20;;
3943;SDS011;1986;52.546;13.428;2023-09-18T04:35:53;25.43;;;23.73;;
3943;SDS011;1986;52.546;13.428;2023-09-18T04:38:20;25.40;;;23.70;;
3943;SDS011;1986;52.546;13.428;2023-09-18T04:40:47;25.03;;;23.33;;
3943;SDS011;1986;52.546;13.428;2023-09-18T04:43:16;23.77;;;22.17;;
3943;SDS011;1986;52.546;13.428;2023-09-18T04:45:44;24.00;;;22.40;;
3943;SDS011;1986;52.546;13.428;2023-09-18T04:48:12;27.90;;;25.63;;
3943;SDS011;1986;52.546;13.428;2023-09-18T04:50:42;24.13;;;22.53;;
3943;SDS011;1986;52.546;13.428;2023-09-18T04:53:12;23.30;;;21.80;;
3943;SDS011;1986;52.546;13.428;2023-09-18T04:55:42;23.80;;;22.20;;
3943;SDS011;1986;52.546;13.428;2023-09-18T04:58:14;23.20;;;21.70;;
3943;SDS011;1986;52.546;13.428;2023-09-18T05:00:41;25.40;;;23.60;;
3943;SDS011;1986;52.546;13.428;2023-09-18T05:03:08;25.17;;;23.47;;
3943;SDS011;1986;52.546;13.428;2023-09-18T05:05:37;24.73;;;22.80;;
3943;SDS011;1986;52.546;13.428;2023-09-18T05:08:05;24.03;;;22.47;;
3943;SDS011;1986;52.546;13.428;2023-09-18T05:10:33;23.67;;;22.17;;
3943;SDS011;1986;52.546;13.428;2023-09-18T05:13:00;23.73;;;22.13;;
3943;SDS011;1986;52.546;13.428;2023-09-18T05:15:28;24.00;;;22.50;;
3943;SDS011;1986;52.546;13.428;2023-09-18T05:18:00;24.70;;;22.77;;
3943;SDS011;1986;52.546;13.428;2023-09-18T05:20:29;23.93;;;22.00;;
3943;SDS011;1986;52.546;13.428;2023-09-18T05:22:58;21.63;;;20.23;;
3943;SDS011;1986;52.546;13.428;2023-09-18T05:25:27;22.23;;;20.73;;
3943;SDS011;1986;52.546;13.428;2023-09-18T05:27:57;23.73;;;22.13;;
3943;SDS011;1986;52.546;13.428;2023-09-18T05:30:31;22.60;;;21.07;;
3943;SDS011;1986;52.546;13.428;2023-09-18T05:33:03;22.00;;;20.50;;
3943;SDS011;1986;52.546;13.428;2023-09-18T05:35:32;23.70;;;22.20;;
3943;SDS011;1986;52.546;13.428;2023-09-18T05:38:01;23.30;;;21.80;;
3943;SDS011;1986;52.546;13.428;2023-09-18T05:40:29;24.63;;;22.57;;
3943;SDS011;1986;52.546;13.428;2023-09-18T05:42:56;24.63;;;23.13;;
3943;SDS011;1986;52.546;13.428;2023-09-18T05:45:23;25.03;;;23.27;;
3943;SDS011;1986;52.546;13.428;2023-09-18T05:47:51;23.27;;;21.87;;
3943;SDS011;1986;52.546;13.428;2023-09-18T05:50:19;24.83;;;23.13;;
3943;SDS011;1986;52.546;13.428;2023-09-18T05:52:46;25.33;;;23.63;;
3943;SDS011;1986;52.546;13.428;2023-09-18T05:55:17;25.60;;;23.97;;
3943;SDS011;1986;52.546;13.428;2023-09-18T05:57:44;24.77;;;23.17;;
3943;SDS011;1986;52.546;13.428;2023-09-18T06:00:14;26.37;;;24.07;;
3943;SDS011;1986;52.546;13.428;2023-09-18T06:02:44;26.83;;;24.93;;
3943;SDS011;1986;52.546;13.428;2023-09-18T06:05:11;26.43;;;24.10;;
3943;SDS011;1986;52.546;13.428;2023-09-18T06:07:41;27.20;;;25.13;;
3943;SDS011;1986;52.546;13.428;2023-09-18T06:10:08;24.40;;;22.70;;
3943;SDS011;1986;52.546;13.428;2023-09-18T06:12:38;25.97;;;24.17;;
3943;SDS011;1986;52.546;13.428;2023-09-18T06:15:05;24.50;;;22.80;;
3943;SDS011;1986;52.546;13.428;2023-09-18T06:17:35;27.13;;;25.13;;
3943;SDS011;1986;52.546;13.428;2023-09-18T06:20:03;26.40;;;24.60;;
3943;SDS011;1986;52.546;13.428;2023-09-18T06:22:34;25.97;;;23.87;;
3943;SDS011;1986;52.546;13.428;2023-09-18T06:25:01;25.10;;;23.30;;
3943;SDS011;1986;52.546;13.428;2023-09-18T06:27:28;26.13;;;24.33;;
3943;SDS011;1986;52.546;13.428;2023-09-18T06:29:58;25.23;;;23.43;;
3943;SDS011;1986;52.546;13.428;2023-09-18T06:32:25;25.10;;;23.40;;
3943;SDS011;1986;52.546;13.428;2023-09-18T06:38:14;23.57;;;22.03;;
3943;SDS011;1986;52.546;13.428;2023-09-18T06:40:43;22.83;;;21.40;;
3943;SDS011;1986;52.546;13.428;2023-09-18T06:43:16;23.33;;;21.83;;
3943;SDS011;1986;52.546;13.428;2023-09-18T06:45:47;24.73;;;22.87;;
3943;SDS011;1986;52.546;13.428;2023-09-18T06:48:14;23.07;;;21.57;;
3943;SDS011;1986;52.546;13.428;2023-09-18T06:50:42;24.53;;;22.43;;
3943;SDS011;1986;52.546;13.428;2023-09-18T06:53:09;24.43;;;22.63;;
3943;SDS011;1986;52.546;13.428;2023-09-18T06:55:36;23.60;;;22.10;;
3943;SDS011;1986;52.546;13.428;2023-09-18T06:58:03;23.67;;;22.17;;
3943;SDS011;1986;52.546;13.428;2023-09-18T07:00:30;27.10;;;25.10;;
3943;SDS011;1986;52.546;13.428;2023-09-18T07:02:58;24.47;;;22.77;;
3943;SDS011;1986;52.546;13.428;2023-09-18T07:05:25;23.77;;;22.27;;
3943;SDS011;1986;52.546;13.428;2023-09-18T07:07:52;24.73;;;23.03;;
3943;SDS011;1986;52.546;13.428;2023-09-18T07:10:19;23.50;;;21.93;;
3943;SDS011;1986;52.546;13.428;2023-09-18T07:12:45;24.93;;;23.10;;
3943;SDS011;1986;52.546;13.428;2023-09-18T07:15:15;24.20;;;22.60;;
3943;SDS011;1986;52.546;13.428;2023-09-18T07:17:44;25.00;;;23.40;;
3943;SDS011;1986;52.546;13.428;2023-09-18T07:20:13;23.93;;;22.43;;
3943;SDS011;1986;52.546;13.428;2023-09-18T07:22:40;23.90;;;22.40;;
3943;SDS011;1986;52.546;13.428;2023-09-18T07:25:11;26.00;;;24.20;;
3943;SDS011;1986;52.546;13.428;2023-09-18T07:27:42;25.03;;;23.43;;
3943;SDS011;1986;52.546;13.428;2023-09-18T07:30:10;23.10;;;21.60;;
3943;SDS011;1986;52.546;13.428;2023-09-18T07:32:38;23.60;;;22.10;;
3943;SDS011;1986;52.546;13.428;2023-09-18T07:35:07;24.83;;;23.23;;
3943;SDS011;1986;52.546;13.428;2023-09-18T07:37:36;28.60;;;26.00;;
3943;SDS011;1986;52.546;13.428;2023-09-18T07:40:06;24.60;;;22.90;;
3943;SDS011;1986;52.546;13.428;2023-09-18T07:42:35;24.50;;;22.70;;
3943;SDS011;1986;52.546;13.428;2023-09-18T07:45:02;25.67;;;23.83;;
3943;SDS011;1986;52.546;13.428;2023-09-18T07:47:29;27.63;;;25.47;;
3943;SDS011;1986;52.546;13.428;2023-09-18T07:49:56;29.80;;;27.27;;
3943;SDS011;1986;52.546;13.428;2023-09-18T07:52:23;25.07;;;23.20;;
3943;SDS011;1986;52.546;13.428;2023-09-18T07:54:53;24.20;;;22.50;;
3943;SDS011;1986;52.546;13.428;2023-09-18T07:57:20;23.77;;;22.17;;
3943;SDS011;1986;52.546;13.428;2023-09-18T07:59:48;26.37;;;24.33;;
3943;SDS011;1986;52.546;13.428;2023-09-18T08:02:18;25.67;;;23.67;;
3943;SDS011;1986;52.546;13.428;2023-09-18T08:04:48;23.97;;;22.37;;
3943;SDS011;1986;52.546;13.428;2023-09-18T08:07:18;25.93;;;24.13;;
3943;SDS011;1986;52.546;13.428;2023-09-18T08:09:45;24.13;;;22.53;;
3943;SDS011;1986;52.546;13.428;2023-09-18T08:12:15;24.27;;;22.67;;
3943;SDS011;1986;52.546;13.428;2023-09-18T08:14:43;23.87;;;22.27;;
3943;SDS011;1986;52.546;13.428;2023-09-18T08:17:11;25.80;;;24.00;;
3943;SDS011;1986;52.546;13.428;2023-09-18T08:19:41;26.50;;;24.10;;
3943;SDS011;1986;52.546;13.428;2023-09-18T08:22:11;25.20;;;23.40;;
3943;SDS011;1986;52.546;13.428;2023-09-18T08:24:42;25.67;;;23.60;;
3943;SDS011;1986;52.546;13.428;2023-09-18T08:27:10;25.10;;;23.20;;
3943;SDS011;1986;52.546;13.428;2023-09-18T08:29:43;26.30;;;24.30;;
3943;SDS011;1986;52.546;13.428;2023-09-18T08:32:10;25.80;;;23.90;;
3943;SDS011;1986;52.546;13.428;2023-09-18T08:34:36;27.93;;;25.77;;
3943;SDS011;1986;52.546;13.428;2023-09-18T08:37:03;27.03;;;25.03;;
3943;SDS011;1986;52.546;13.428;2023-09-18T08:39:31;27.20;;;25.10;;
3943;SDS011;1986;52.546;13.428;2023-09-18T08:42:03;27.13;;;25.13;;
3943;SDS011;1986;52.546;13.428;2023-09-18T08:44:31;26.57;;;24.43;;
3943;SDS011;1986;52.546;13.428;2023-09-18T08:46:59;25.50;;;23.70;;
3943;SDS011;1986;52.546;13.428;2023-09-18T08:49:27;28.47;;;25.77;;
3943;SDS011;1986;52.546;13.428;2023-09-18T08:51:56;25.67;;;23.77;;
3943;SDS011;1986;52.546;13.428;2023-09-18T08:54:24;28.63;;;26.43;;
3943;SDS011;1986;52.546;13.428;2023-09-18T08:56:54;26.13;;;24.20;;
3943;SDS011;1986;52.546;13.428;2023-09-18T08:59:22;29.23;;;26.90;;
3943;SDS011;1986;52.546;13.428;2023-09-18T09:01:51;26.90;;;24.70;;
3943;SDS011;1986;52.546;13.428;2023-09-18T09:04:22;26.53;;;24.53;;
3943;SDS011;1986;52.546;13.428;2023-09-18T09:06:49;26.50;;;24.30;;
3943;SDS011;1986;52.546;13.428;2023-09-18T09:09:22;24.87;;;23.07;;
3943;SDS011;1986;52.546;13.428;2023-09-18T09:11:51;24.90;;;23.10;;
3943;SDS011;1986;52.546;13.428;2023-09-18T09:14:20;25.83;;;23.93;;
3943;SDS011;1986;52.546;13.428;2023-09-18T09:16:53;25.83;;;23.93;;
3943;SDS011;1986;52.546;13.428;2023-09-18T09:19:31;26.70;;;24.70;;
3943;SDS011;1986;52.546;13.428;2023-09-18T09:22:02;27.40;;;25.30;;
3943;SDS011;1986;52.546;13.428;2023-09-18T09:24:36;26.60;;;24.70;;
3943;SDS011;1986;52.546;13.428;2023-09-18T09:27:04;26.90;;;24.83;;
3943;SDS011;1986;52.546;13.428;2023-09-18T09:29:31;30.03;;;27.73;;
3943;SDS011;1986;52.546;13.428;2023-09-18T09:32:13;31.23;;;28.93;;
3943;SDS011;1986;52.546;13.428;2023-09-18T09:34:43;26.53;;;24.53;;
3943;SDS011;1986;52.546;13.428;2023-09-18T09:37:11;29.37;;;27.07;;
3943;SDS011;1986;52.546;13.428;2023-09-18T09:39:47;26.10;;;24.13;;
3943;SDS011;1986;52.546;13.428;2023-09-18T09:42:16;27.33;;;25.20;;
3943;SDS011;1986;52.546;13.428;2023-09-18T09:44:48;27.17;;;25.07;;
3943;SDS011;1986;52.546;13.428;2023-09-18T09:47:27;25.40;;;23.60;;
3943;SDS011;1986;52.546;13.428;2023-09-18T09:49:56;30.57;;;28.10;;
3943;SDS011;1986;52.546;13.428;2023-09-18T09:52:23;29.57;;;27.17;;
3943;SDS011;1986;52.546;13.428;2023-09-18T09:54:51;28.80;;;26.70;;
3943;SDS011;1986;52.546;13.428;2023-09-18T09:57:21;28.13;;;26.03;;
3943;SDS011;1986;52.546;13.428;2023-09-18T09:59:51;27.23;;;25.33;;
3943;SDS011;1986;52.546;13.428;2023-09-18T10:02:32;27.80;;;25.80;;
3943;SDS011;1986;52.546;13.428;2023-09-18T10:05:06;29.03;;;26.37;;
3943;SDS011;1986;52.546;13.428;2023-09-18T10:07:34;27.87;;;25.83;;
3943;SDS011;1986;52.546;13.428;2023-09-18T10:10:02;28.13;;;25.93;;
3943;SDS011;1986;52.546;13.428;2023-09-18T10:12:30;28.13;;;25.93;;
3943;SDS011;1986;52.546;13.428;2023-09-18T10:14:58;26.90;;;24.87;;
3943;SDS011;1986;52.546;13.428;2023-09-18T10:17:26;29.27;;;26.67;;
3943;SDS011;1986;52.546;13.428;2023-09-18T10:19:58;28.70;;;26.50;;
3943;SDS011;1986;52.546;13.428;2023-09-18T10:22:37;30.37;;;27.60;;
3943;SDS011;1986;52.546;13.428;2023-09-18T10:25:10;27.73;;;25.60;;
3943;SDS011;1986;52.546;13.428;2023-09-18T10:27:43;29.43;;;27.20;;
3943;SDS011;1986;52.546;13.428;2023-09-18T10:30:14;29.00;;;26.90;;
3943;SDS011;1986;52.546;13.428;2023-09-18T10:32:48;28.30;;;26.10;;
3943;SDS011;1986;52.546;13.428;2023-09-18T10:35:17;29.07;;;26.83;;
3943;SDS011;1986;52.546;13.428;2023-09-18T10:37:46;28.63;;;26.33;;
3943;SDS011;1986;52.546;13.428;2023-09-18T10:40:16;28.00;;;25.80;;
3943;SDS011;1986;52.546;13.428;2023-09-18T10:42:45;30.67;;;28.07;;
3943;SDS011;1986;52.546;13.428;2023-09-18T10:45:14;27.00;;;24.80;;
3943;SDS011;1986;52.546;13.428;2023-09-18T10:47:42;28.47;;;26.13;;
3943;SDS011;1986;52.546;13.428;2023-09-18T10:50:15;29.57;;;27.07;;
3943;SDS011;1986;52.546;13.428;2023-09-18T10:52:51;28.80;;;26.50;;
3943;SDS011;1986;52.546;13.428;2023-09-18T10:55:20;28.70;;;26.40;;
3943;SDS011;1986;52.546;13.428;2023-09-18T10:57:49;30.63;;;27.90;;
3943;SDS011;1986;52.546;13.428;2023-09-18T11:00:17;31.83;;;29.10;;
3943;SDS011;1986;52.546;13.428;2023-09-18T11:02:48;30.97;;;28.57;;
3943;SDS011;1986;52.546;13.428;2023-09-18T11:05:26;41.53;;;31.93;;
3943;SDS011;1986;52.546;13.428;2023-09-18T11:11:00;32.03;;;29.30;;
3943;SDS011;1986;52.546;13.428;2023-09-18T11:13:35;30.57;;;28.27;;
3943;SDS011;1986;52.546;13.428;2023-09-18T11:16:19;31.47;;;29.07;;
3943;SDS011;1986;52.546;13.428;2023-09-18T11:19:10;32.57;;;29.77;;
3943;SDS011;1986;52.546;13.428;2023-09-18T11:21:40;31.10;;;28.70;;
3943;SDS011;1986;52.546;13.428;2023-09-18T11:24:15;29.50;;;27.17;;
3943;SDS011;1986;52.546;13.428;2023-09-18T11:26:44;30.47;;;28.03;;
3943;SDS011;1986;52.546;13.428;2023-09-18T11:29:14;30.67;;;28.30;;
3943;SDS011;1986;52.546;13.428;2023-09-18T11:31:56;31.50;;;28.73;;
3943;SDS011;1986;52.546;13.428;2023-09-18T11:34:24;29.13;;;26.83;;
3943;SDS011;1986;52.546;13.428;2023-09-18T11:36:54;28.93;;;26.60;;
3943;SDS011;1986;52.546;13.428;2023-09-18T11:39:37;29.93;;;27.63;;
3943;SDS011;1986;52.546;13.428;2023-09-18T11:42:17;30.30;;;27.90;;
3943;SDS011;1986;52.546;13.428;2023-09-18T11:44:47;30.07;;;27.77;;
3943;SDS011;1986;52.546;13.428;2023-09-18T11:47:16;32.33;;;29.83;;
3943;SDS011;1986;52.546;13.428;2023-09-18T11:49:47;30.00;;;27.80;;
3943;SDS011;1986;52.546;13.428;2023-09-18T11:52:18;33.20;;;30.80;;
3943;SDS011;1986;52.546;13.428;2023-09-18T11:54:48;32.03;;;29.63;;
3943;SDS011;1986;52.546;13.428;2023-09-18T11:57:21;32.83;;;30.43;;
3943;SDS011;1986;52.546;13.428;2023-09-18T11:59:48;32.77;;;30.33;;
3943;SDS011;1986;52.546;13.428;2023-09-18T12:02:24;31.93;;;29.53;;
3943;SDS011;1986;52.546;13.428;2023-09-18T12:04:53;30.23;;;27.93;;
3943;SDS011;1986;52.546;13.428;2023-09-18T12:07:20;31.00;;;28.80;;
3943;SDS011;1986;52.546;13.428;2023-09-18T12:09:49;31.73;;;29.33;;
3943;SDS011;1986;52.546;13.428;2023-09-18T12:12:16;29.03;;;26.73;;
3943;SDS011;1986;52.546;13.428;2023-09-18T12:14:44;31.50;;;29.03;;
3943;SDS011;1986;52.546;13.428;2023-09-18T12:17:14;28.23;;;26.03;;
3943;SDS011;1986;52.546;13.428;2023-09-18T12:19:49;30.70;;;28.30;;
3943;SDS011;1986;52.546;13.428;2023-09-18T12:22:24;29.70;;;27.40;;
3943;SDS011;1986;52.546;13.428;2023-09-18T12:24:55;29.03;;;26.70;;
3943;SDS011;1986;52.546;13.428;2023-09-18T12:27:35;30.47;;;28.07;;
3943;SDS011;1986;52.546;13.428;2023-09-18T12:30:02;29.17;;;26.87;;
3943;SDS011;1986;52.546;13.428;2023-09-18T12:32:30;30.03;;;27.73;;
3943;SDS011;1986;52.546;13.428;2023-09-18T12:34:58;30.00;;;27.70;;
3943;SDS011;1986;52.546;13.428;2023-09-18T12:37:26;29.80;;;27.50;;
3943;SDS011;1986;52.546;13.428;2023-09-18T12:39:57;28.63;;;26.47;;
3943;SDS011;1986;52.546;13.428;2023-09-18T12:42:24;30.60;;;28.30;;
3943;SDS011;1986;52.546;13.428;2023-09-18T12:44:51;29.07;;;26.87;;
3943;SDS011;1986;52.546;13.428;2023-09-18T12:47:20;30.97;;;28.57;;
3943;SDS011;1986;52.546;13.428;2023-09-18T12:49:50;29.03;;;26.73;;
3943;SDS011;1986;52.546;13.428;2023-09-18T12:52:21;30.13;;;27.73;;
3943;SDS011;1986;52.546;13.428;2023-09-18T12:54:51;35.90;;;32.93;;
3943;SDS011;1986;52.546;13.428;2023-09-18T12:57:22;30.00;;;27.70;;
3943;SDS011;1986;52.546;13.428;2023-09-18T12:59:51;30.70;;;28.30;;
3943;SDS011;1986;52.546;13.428;2023-09-18T13:02:20;30.03;;;27.53;;
3943;SDS011;1986;52.546;13.428;2023-09-18T13:04:50;30.47;;;28.07;;
3943;SDS011;1986;52.546;13.428;2023-09-18T13:07:20;31.00;;;28.20;;
3943;SDS011;1986;52.546;13.428;2023-09-18T13:09:58;29.70;;;27.40;;
3943;SDS011;1986;52.546;13.428;2023-09-18T13:12:38;29.67;;;27.37;;
3943;SDS011;1986;52.546;13.428;2023-09-18T13:15:06;30.83;;;27.93;;
3943;SDS011;1986;52.546;13.428;2023-09-18T13:17:41;29.27;;;26.97;;
3943;SDS011;1986;52.546;13.428;2023-09-18T13:20:11;33.40;;;30.43;;
3943;SDS011;1986;52.546;13.428;2023-09-18T13:22:47;29.73;;;27.43;;
3943;SDS011;1986;52.546;13.428;2023-09-18T13:25:18;28.73;;;26.43;;
3943;SDS011;1986;52.546;13.428;2023-09-18T13:27:51;31.10;;;28.70;;
3943;SDS011;1986;52.546;13.428;2023-09-18T13:30:19;32.47;;;29.97;;
3943;SDS011;1986;52.546;13.428;2023-09-18T13:32:47;31.00;;;28.60;;
3943;SDS011;1986;52.546;13.428;2023-09-18T13:35:16;30.13;;;27.83;;
3943;SDS011;1986;52.546;13.428;2023-09-18T13:37:43;30.93;;;28.43;;
3943;SDS011;1986;52.546;13.428;2023-09-18T13:40:11;29.10;;;26.80;;
3943;SDS011;1986;52.546;13.428;2023-09-18T13:42:41;29.97;;;27.67;;
3943;SDS011;1986;52.546;13.428;2023-09-18T13:45:09;29.23;;;27.03;;
3943;SDS011;1986;52.546;13.428;2023-09-18T13:47:36;29.90;;;27.60;;
3943;SDS011;1986;52.546;13.428;2023-09-18T13:50:04;30.53;;;28.23;;
3943;SDS011;1986;52.546;13.428;2023-09-18T13:52:32;28.80;;;26.50;;
3943;SDS011;1986;52.546;13.428;2023-09-18T13:55:11;29.60;;;27.30;;
3943;SDS011;1986;52.546;13.428;2023-09-18T13:57:38;28.00;;;25.80;;
3943;SDS011;1986;52.546;13.428;2023-09-18T14:00:06;28.37;;;26.07;;
3943;SDS011;1986;52.546;13.428;2023-09-18T14:02:37;29.00;;;26.70;;
3943;SDS011;1986;52.546;13.428;2023-09-18T14:05:05;28.37;;;26.27;;
3943;SDS011;1986;52.546;13.428;2023-09-18T14:07:33;28.80;;;26.60;;
3943;SDS011;1986;52.546;13.428;2023-09-18T14:10:00;28.43;;;26.23;;
3943;SDS011;1986;52.546;13.428;2023-09-18T14:12:32;29.63;;;27.33;;
3943;SDS011;1986;52.546;13.428;2023-09-18T14:15:13;29.10;;;26.80;;
3943;SDS011;1986;52.546;13.428;2023-09-18T14:17:41;28.77;;;26.47;;
3943;SDS011;1986;52.546;13.428;2023-09-18T14:20:08;27.73;;;25.53;;
3943;SDS011;1986;52.546;13.428;2023-09-18T14:22:36;27.00;;;24.90;;
3943;SDS011;1986;52.546;13.428;2023-09-18T14:25:03;26.80;;;24.70;;
3943;SDS011;1986;52.546;13.428;2023-09-18T14:27:31;28.17;;;26.07;;
3943;SDS011;1986;52.546;13.428;2023-09-18T14:29:58;27.30;;;25.20;;
3943;SDS011;1986;52.546;13.428;2023-09-18T14:32:27;52.23;;;27.63;;
3943;SDS011;1986;52.546;13.428;2023-09-18T14:34:56;28.90;;;26.60;;
3943;SDS011;1986;52.546;13.428;2023-09-18T14:37:26;27.73;;;25.53;;
3943;SDS011;1986;52.546;13.428;2023-09-18T14:39:53;29.40;;;27.03;;
3943;SDS011;1986;52.546;13.428;2023-09-18T14:42:20;30.57;;;28.20;;
3943;SDS011;1986;52.546;13.428;2023-09-18T14:44:47;29.23;;;26.83;;
3943;SDS011;1986;52.546;13.428;2023-09-18T14:47:14;30.77;;;28.30;;
3943;SDS011;1986;52.546;13.428;2023-09-18T14:49:41;27.13;;;24.93;;
3943;SDS011;1986;52.546;13.428;2023-09-18T14:52:14;27.67;;;25.47;;